Kaszuby — C6XD6 — position and weather

sailwx.info

Track history (hours):
 
Tides and Currents Weather Stations Pressure Air Temp Water Temp Dewpoint Dewpoint Depression Visibility Wind Speed Wind Dir Waves Ship Positions

Kaszuby

Last reported at 2016-Jul-22 23:29 UTC. Time now 2016-Jul-25 11:58 UTC.
Position N 29°42' W 089°59'.

Length 190 m; draft 10.8 m.

Type: Cargo ship. MMSI: 311005600.

Date/timePositionNaut miles runAvg speedWind from/ knotsBaromVisibWave heightAir tempDewpointWater temp
2016-Jul-22 23:29N 29°42' W 089°59'1111.8
2016-Jul-22 22:33N 29°53' W 089°58'5 5.0
2016-Jul-22 21:33N 29°57' W 090°01'7 7.0
2016-Jul-22 20:33N 29°57' W 090°09'22 0.5
2016-Jul-21 01:05N 30°03' W 090°34'  
2016-Jul-18 10:10N 29°57' W 090°24'25 4.5
2016-Jul-18 04:34N 29°54' W 089°55'0 0.0
2016-Jul-18 03:34N 29°54' W 089°54'0 0.0
2016-Jul-18 02:34N 29°54' W 089°55'0 0.0
2016-Jul-18 01:31N 29°54' W 089°55'0 0.0
2016-Jul-18 00:31N 29°54' W 089°55'0 0.0
2016-Jul-17 23:31N 29°54' W 089°54'0 0.0
2016-Jul-17 22:25N 29°54' W 089°54'0 0.0
2016-Jul-17 21:31N 29°54' W 089°54'0 0.0
2016-Jul-17 20:30N 29°54' W 089°54'0 0.0
2016-Jul-17 19:19N 29°54' W 089°54'0 0.0
2016-Jul-17 18:19N 29°54' W 089°55'0 0.0
2016-Jul-17 17:25N 29°54' W 089°55'0 0.0
2016-Jul-17 16:34N 29°54' W 089°55'0 0.0
2016-Jul-17 15:31N 29°54' W 089°54'0 0.0
2016-Jul-17 14:25N 29°54' W 089°55'0 0.0
2016-Jul-17 13:28N 29°54' W 089°55'2 1.7
2016-Jul-17 12:33N 29°52' W 089°55'9 8.7
2016-Jul-17 11:33N 29°45' W 090°01'  
2016-Jul-15 04:10N 20°34' W 095°06'913.3
2016-Jul-15 03:27N 20°26' W 095°12'3913.3
2016-Jul-15 00:30N 19°53' W 095°34'1313.5
2016-Jul-14 23:33N 19°42' W 095°42'1313.2
2016-Jul-14 22:33N 19°31' W 095°49'1313.3
2016-Jul-14 21:33N 19°20' W 095°57'1111.1
2016-Jul-14 20:34N 19°11' W 096°04'4 4.0
2016-Jul-14 19:31N 19°13' W 096°08'0 0.0
2016-Jul-14 18:31N 19°13' W 096°08'0 0.0
2016-Jul-14 17:31N 19°13' W 096°08'0 0.0
2016-Jul-14 16:31N 19°13' W 096°08'0 0.0
2016-Jul-14 15:28N 19°13' W 096°08'0 0.0
2016-Jul-14 14:31N 19°13' W 096°08'0 0.0
2016-Jul-14 13:28N 19°13' W 096°08'0 0.0
2016-Jul-14 12:25N 19°13' W 096°08'0 0.0
2016-Jul-14 11:31N 19°13' W 096°08'0 0.0
2016-Jul-14 10:31N 19°13' W 096°08'0 0.0
2016-Jul-14 09:31N 19°13' W 096°08'0 0.0
2016-Jul-14 08:31N 19°13' W 096°08'0 0.0
2016-Jul-14 07:31N 19°13' W 096°08'0 0.0
2016-Jul-14 06:31N 19°13' W 096°08'0 0.0
2016-Jul-14 05:31N 19°13' W 096°08'0 0.0
2016-Jul-14 04:31N 19°13' W 096°08'0 0.0
2016-Jul-14 03:31N 19°13' W 096°08'0 0.0
2016-Jul-14 02:28N 19°13' W 096°08'0 0.0
2016-Jul-14 01:31N 19°13' W 096°08'0 0.0
2016-Jul-14 00:31N 19°13' W 096°08'0 0.0
2016-Jul-13 23:31N 19°13' W 096°08'0 0.0
2016-Jul-13 22:31N 19°13' W 096°08'0 0.0
2016-Jul-13 21:31N 19°13' W 096°08'0 0.0
2016-Jul-13 20:31N 19°13' W 096°08'0 0.0
2016-Jul-13 19:25N 19°13' W 096°08'0 0.0
2016-Jul-13 18:31N 19°13' W 096°08'0 0.0
2016-Jul-13 17:31N 19°13' W 096°08'0 0.0
2016-Jul-13 16:31N 19°13' W 096°08'0 0.0
2016-Jul-13 15:31N 19°13' W 096°08'0 0.0
2016-Jul-13 14:31N 19°13' W 096°08'0 0.0
2016-Jul-13 13:31N 19°13' W 096°08'0 0.0
2016-Jul-13 12:31N 19°13' W 096°08'0 0.0
2016-Jul-13 11:31N 19°13' W 096°08'0 0.0
2016-Jul-13 10:31N 19°13' W 096°08'0 0.0
2016-Jul-13 09:31N 19°13' W 096°08'0 0.0
2016-Jul-13 08:31N 19°13' W 096°08'0 0.0
2016-Jul-13 07:31N 19°13' W 096°08'0 0.0
2016-Jul-13 06:31N 19°13' W 096°08'0 0.0
2016-Jul-13 05:25N 19°13' W 096°08'0 0.0
2016-Jul-13 04:31N 19°13' W 096°08'0 0.0
2016-Jul-13 03:31N 19°13' W 096°08'0 0.0
2016-Jul-13 02:31N 19°13' W 096°08'0 0.0
2016-Jul-13 01:31N 19°13' W 096°08'0 0.0
2016-Jul-13 00:28N 19°13' W 096°08'0 0.0
2016-Jul-12 23:31N 19°13' W 096°08'  
Track history (hours):
 
Tides and Currents Weather Stations Pressure Air Temp Water Temp Dewpoint Dewpoint Depression Visibility Wind Speed Wind Dir Waves Ship Positions

Kaszuby

Last reported at 2016-Jul-22 23:29 UTC. Time now 2016-Jul-25 11:58 UTC.
Position N 29°42' W 089°59'.

Length 190 m; draft 10.8 m.

Type: Cargo ship. MMSI: 311005600.

Date/timePositionNaut miles runAvg speedWind from/ knotsBaromVisibWave heightAir tempDewpointWater temp
2016-Jul-22 23:29N 29°42' W 089°59'1111.8
2016-Jul-22 22:33N 29°53' W 089°58'5 5.0
2016-Jul-22 21:33N 29°57' W 090°01'7 7.0
2016-Jul-22 20:33N 29°57' W 090°09'22 0.5
2016-Jul-21 01:05N 30°03' W 090°34'  
2016-Jul-18 10:10N 29°57' W 090°24'25 4.5
2016-Jul-18 04:34N 29°54' W 089°55'0 0.0
2016-Jul-18 03:34N 29°54' W 089°54'0 0.0
2016-Jul-18 02:34N 29°54' W 089°55'0 0.0
2016-Jul-18 01:31N 29°54' W 089°55'0 0.0
2016-Jul-18 00:31N 29°54' W 089°55'0 0.0
2016-Jul-17 23:31N 29°54' W 089°54'0 0.0
2016-Jul-17 22:25N 29°54' W 089°54'0 0.0
2016-Jul-17 21:31N 29°54' W 089°54'0 0.0
2016-Jul-17 20:30N 29°54' W 089°54'0 0.0
2016-Jul-17 19:19N 29°54' W 089°54'0 0.0
2016-Jul-17 18:19N 29°54' W 089°55'0 0.0
2016-Jul-17 17:25N 29°54' W 089°55'0 0.0
2016-Jul-17 16:34N 29°54' W 089°55'0 0.0
2016-Jul-17 15:31N 29°54' W 089°54'0 0.0
2016-Jul-17 14:25N 29°54' W 089°55'0 0.0
2016-Jul-17 13:28N 29°54' W 089°55'2 1.7
2016-Jul-17 12:33N 29°52' W 089°55'9 8.7
2016-Jul-17 11:33N 29°45' W 090°01'  
2016-Jul-15 04:10N 20°34' W 095°06'913.3
2016-Jul-15 03:27N 20°26' W 095°12'3913.3
2016-Jul-15 00:30N 19°53' W 095°34'1313.5
2016-Jul-14 23:33N 19°42' W 095°42'1313.2
2016-Jul-14 22:33N 19°31' W 095°49'1313.3
2016-Jul-14 21:33N 19°20' W 095°57'1111.1
2016-Jul-14 20:34N 19°11' W 096°04'4 4.0
2016-Jul-14 19:31N 19°13' W 096°08'0 0.0
2016-Jul-14 18:31N 19°13' W 096°08'0 0.0
2016-Jul-14 17:31N 19°13' W 096°08'0 0.0
2016-Jul-14 16:31N 19°13' W 096°08'0 0.0
2016-Jul-14 15:28N 19°13' W 096°08'0 0.0
2016-Jul-14 14:31N 19°13' W 096°08'0 0.0
2016-Jul-14 13:28N 19°13' W 096°08'0 0.0
2016-Jul-14 12:25N 19°13' W 096°08'0 0.0
2016-Jul-14 11:31N 19°13' W 096°08'0 0.0
2016-Jul-14 10:31N 19°13' W 096°08'0 0.0
2016-Jul-14 09:31N 19°13' W 096°08'0 0.0
2016-Jul-14 08:31N 19°13' W 096°08'0 0.0
2016-Jul-14 07:31N 19°13' W 096°08'0 0.0
2016-Jul-14 06:31N 19°13' W 096°08'0 0.0
2016-Jul-14 05:31N 19°13' W 096°08'0 0.0
2016-Jul-14 04:31N 19°13' W 096°08'0 0.0
2016-Jul-14 03:31N 19°13' W 096°08'0 0.0
2016-Jul-14 02:28N 19°13' W 096°08'0 0.0
2016-Jul-14 01:31N 19°13' W 096°08'0 0.0
2016-Jul-14 00:31N 19°13' W 096°08'0 0.0
2016-Jul-13 23:31N 19°13' W 096°08'0 0.0
2016-Jul-13 22:31N 19°13' W 096°08'0 0.0
2016-Jul-13 21:31N 19°13' W 096°08'0 0.0
2016-Jul-13 20:31N 19°13' W 096°08'0 0.0
2016-Jul-13 19:25N 19°13' W 096°08'0 0.0
2016-Jul-13 18:31N 19°13' W 096°08'0 0.0
2016-Jul-13 17:31N 19°13' W 096°08'0 0.0
2016-Jul-13 16:31N 19°13' W 096°08'0 0.0
2016-Jul-13 15:31N 19°13' W 096°08'0 0.0
2016-Jul-13 14:31N 19°13' W 096°08'0 0.0
2016-Jul-13 13:31N 19°13' W 096°08'0 0.0
2016-Jul-13 12:31N 19°13' W 096°08'0 0.0
2016-Jul-13 11:31N 19°13' W 096°08'0 0.0
2016-Jul-13 10:31N 19°13' W 096°08'0 0.0
2016-Jul-13 09:31N 19°13' W 096°08'0 0.0
2016-Jul-13 08:31N 19°13' W 096°08'0 0.0
2016-Jul-13 07:31N 19°13' W 096°08'0 0.0
2016-Jul-13 06:31N 19°13' W 096°08'0 0.0
2016-Jul-13 05:25N 19°13' W 096°08'0 0.0
2016-Jul-13 04:31N 19°13' W 096°08'0 0.0
2016-Jul-13 03:31N 19°13' W 096°08'0 0.0
2016-Jul-13 02:31N 19°13' W 096°08'0 0.0
2016-Jul-13 01:31N 19°13' W 096°08'0 0.0
2016-Jul-13 00:28N 19°13' W 096°08'0 0.0
2016-Jul-12 23:31N 19°13' W 096°08'  

Dump ship's entire track history